Time;durP1;ratioP1;P1;durP2;ratioP2;P2;SDS_P1;SDS_P2;PMS_P1;PMS_P2;Temp;Humidity;BMP_temperature;BMP_pressure;BME280_temperature;BME280_humidity;BME280_pressure;Samples;Min_cycle;Max_cycle;Signal;HPM_P1;HPM_P2
2023/05/09 00:00:09;;;;;;;6.93;6.27;;;15.50;62.90;15.50;96835.00;;;;5045793;28;20261;-79
2023/05/09 00:02:37;;;;;;;7.40;6.70;;;15.50;62.80;15.50;96826.00;;;;5056099;28;20216;-80
2023/05/09 00:05:06;;;;;;;7.67;6.87;;;15.50;62.80;15.50;96837.00;;;;5041816;28;20225;-81
2023/05/09 00:07:34;;;;;;;8.37;6.77;;;15.40;62.80;15.40;96826.00;;;;5051662;28;20205;-80
2023/05/09 00:10:04;;;;;;;7.00;6.30;;;15.40;62.80;15.40;96819.00;;;;5047836;28;20193;-81
2023/05/09 00:12:31;;;;;;;7.87;6.20;;;15.30;62.90;15.40;96818.00;;;;5047355;28;20222;-81
2023/05/09 00:14:59;;;;;;;7.60;6.77;;;15.30;63.20;15.30;96818.00;;;;5037953;28;20236;-80
2023/05/09 00:17:27;;;;;;;6.90;6.20;;;15.30;63.30;15.30;96814.00;;;;5042838;28;20623;-81
2023/05/09 00:19:54;;;;;;;6.97;6.27;;;15.20;63.30;15.30;96815.00;;;;5008489;28;20204;-80
2023/05/09 00:22:22;;;;;;;7.07;6.20;;;15.20;63.30;15.30;96809.00;;;;5044860;28;20256;-81
2023/05/09 00:24:50;;;;;;;6.93;6.03;;;15.20;63.20;15.20;96811.00;;;;5043880;28;20253;-81
2023/05/09 00:27:19;;;;;;;7.30;6.60;;;15.20;63.30;15.20;96807.00;;;;5044465;28;20256;-80
2023/05/09 00:29:47;;;;;;;8.03;7.10;;;15.10;64.10;15.20;96808.00;;;;5041621;28;20205;-80
2023/05/09 00:32:14;;;;;;;7.10;6.40;;;15.10;63.60;15.20;96803.00;;;;5026031;28;20267;-80
2023/05/09 00:34:42;;;;;;;6.63;6.03;;;15.10;63.70;15.10;96812.00;;;;5047511;28;20196;-80
2023/05/09 00:37:09;;;;;;;7.00;6.30;;;15.00;63.60;15.10;96803.00;;;;5030114;28;20235;-80
2023/05/09 00:39:36;;;;;;;6.00;5.47;;;15.00;63.50;15.10;96807.00;;;;5040811;28;20231;-81
2023/05/09 00:42:04;;;;;;;6.63;6.03;;;15.00;63.50;15.10;96800.00;;;;5055975;28;20331;-80
2023/05/09 00:44:33;;;;;;;6.63;6.03;;;15.00;63.40;15.10;96797.00;;;;5021140;28;20309;-79
2023/05/09 00:47:00;;;;;;;5.67;5.20;;;15.00;63.50;15.10;96791.00;;;;5035974;28;20188;-81
2023/05/09 00:49:28;;;;;;;6.00;5.50;;;15.00;63.70;15.00;96796.00;;;;5052358;28;20209;-80
2023/05/09 00:51:56;;;;;;;7.03;5.67;;;15.00;63.70;15.10;96789.00;;;;5038909;28;20217;-81
2023/05/09 00:54:24;;;;;;;6.10;5.50;;;14.90;63.50;15.10;96785.00;;;;5053420;28;20193;-81
2023/05/09 00:56:52;;;;;;;6.33;5.73;;;14.90;63.50;15.00;96781.00;;;;5036567;28;20194;-80
2023/05/09 00:59:20;;;;;;;6.03;5.53;;;14.90;63.50;15.00;96787.00;;;;5053569;28;20209;-80
2023/05/09 01:01:50;;;;;;;6.30;5.77;;;14.90;63.50;15.00;96780.00;;;;5039475;28;20229;-81
2023/05/09 01:04:17;;;;;;;5.70;5.20;;;14.90;63.70;15.10;96776.00;;;;5038375;28;20704;-81
2023/05/09 01:06:55;;;;;;;5.90;5.40;;;14.90;63.70;15.10;96773.00;;;;5039743;28;20216;-80
2023/05/09 01:09:32;;;;;;;6.10;5.50;;;14.90;63.80;15.10;96768.00;;;;5011959;28;20235;-81
2023/05/09 01:12:14;;;;;;;5.97;5.47;;;14.90;63.70;15.10;96769.00;;;;5039885;28;20252;-81
2023/05/09 01:14:54;;;;;;;4.70;4.30;;;14.90;63.70;15.10;96765.00;;;;5035144;28;20229;-81
2023/05/09 01:17:37;;;;;;;5.07;4.67;;;14.90;63.70;15.10;96759.00;;;;5024952;28;20200;-81
2023/05/09 01:20:17;;;;;;;5.00;4.60;;;14.90;63.60;15.10;96748.00;;;;5033985;28;20219;-81
2023/05/09 01:23:06;;;;;;;5.17;4.77;;;15.00;63.70;15.20;96755.00;;;;5016331;28;20236;-81
2023/05/09 01:26:02;;;;;;;5.10;4.63;;;15.00;63.50;15.20;96756.00;;;;5017635;28;20712;-81
2023/05/09 01:29:00;;;;;;;4.97;4.57;;;15.00;63.20;15.20;96753.00;;;;5032486;28;20189;-80
2023/05/09 01:31:30;;;;;;;5.03;4.63;;;15.00;62.90;15.20;96751.00;;;;5032401;28;20221;-81
2023/05/09 01:34:02;;;;;;;5.50;4.53;;;15.00;62.70;15.30;96757.00;;;;5016586;28;20193;-80
2023/05/09 01:36:35;;;;;;;4.93;4.43;;;15.10;62.50;15.30;96750.00;;;;5017873;28;20197;-81
2023/05/09 01:39:07;;;;;;;4.70;4.40;;;15.10;62.40;15.30;96755.00;;;;5010692;28;20288;-81
2023/05/09 01:41:38;;;;;;;4.40;4.00;;;15.10;62.20;15.30;96747.00;;;;5018419;28;20290;-80
2023/05/09 01:44:11;;;;;;;4.10;3.80;;;15.10;62.20;15.30;96745.00;;;;5043259;28;20200;-81
2023/05/09 01:46:40;;;;;;;4.60;4.30;;;15.10;62.20;15.30;96752.00;;;;5035633;28;20205;-81
2023/05/09 01:49:09;;;;;;;4.60;4.17;;;15.10;62.00;15.30;96760.00;;;;5046367;28;20205;-80
2023/05/09 01:51:41;;;;;;;4.47;4.10;;;15.10;61.90;15.20;96757.00;;;;5043631;28;20213;-81
2023/05/09 01:54:11;;;;;;;4.40;4.10;;;15.10;61.80;15.20;96752.00;;;;5028548;28;20207;-81
2023/05/09 01:56:41;;;;;;;4.13;3.83;;;15.10;61.60;15.20;96758.00;;;;5053449;28;20709;-81
2023/05/09 01:59:14;;;;;;;4.53;4.10;;;15.10;61.40;15.20;96753.00;;;;5043371;28;20200;-81
2023/05/09 02:01:44;;;;;;;4.27;3.97;;;15.10;61.40;15.20;96752.00;;;;5020056;28;20253;-81
2023/05/09 02:04:15;;;;;;;3.77;3.47;;;15.10;60.90;15.20;96755.00;;;;5039232;28;20578;-81
2023/05/09 02:06:48;;;;;;;5.23;3.93;;;15.00;61.40;15.10;96757.00;;;;5043939;28;20678;-81
2023/05/09 02:09:16;;;;;;;3.67;3.37;;;15.00;61.40;15.10;96749.00;;;;5041826;28;20248;-80
2023/05/09 02:11:44;;;;;;;4.37;3.80;;;15.00;61.40;15.00;96753.00;;;;5048375;28;20299;-81
2023/05/09 02:14:11;;;;;;;4.03;3.73;;;15.00;61.40;15.00;96750.00;;;;5030407;28;20193;-81
2023/05/09 02:16:39;;;;;;;4.10;3.70;;;14.90;61.40;15.00;96750.00;;;;5007394;28;20196;-80
2023/05/09 02:19:09;;;;;;;4.33;4.03;;;14.90;61.60;15.00;96743.00;;;;5038342;28;20219;-80
2023/05/09 02:21:36;;;;;;;3.90;3.60;;;14.90;61.80;15.00;96743.00;;;;4997829;28;20209;-81
2023/05/09 02:24:06;;;;;;;3.70;3.40;;;14.90;61.80;14.90;96739.00;;;;5001696;28;20201;-80
2023/05/09 02:26:35;;;;;;;4.13;3.83;;;14.80;61.70;14.90;96742.00;;;;5021172;28;20332;-80
2023/05/09 02:29:05;;;;;;;4.10;3.80;;;14.80;61.70;14.90;96740.00;;;;5024663;28;20192;-80
2023/05/09 02:31:36;;;;;;;4.10;3.80;;;14.80;61.80;14.80;96741.00;;;;5043906;28;20226;-81
2023/05/09 02:34:05;;;;;;;4.40;4.10;;;14.70;61.70;14.80;96726.00;;;;5043331;28;20201;-80
2023/05/09 02:36:35;;;;;;;4.17;3.73;;;14.70;61.70;14.70;96734.00;;;;5050343;28;20227;-81
2023/05/09 02:39:03;;;;;;;4.50;4.10;;;14.70;61.90;14.70;96734.00;;;;5045013;28;20197;-81
2023/05/09 02:41:31;;;;;;;4.23;3.80;;;14.60;61.90;14.70;96731.00;;;;5017852;28;20231;-81
2023/05/09 02:43:58;;;;;;;3.70;3.40;;;14.60;61.90;14.60;96730.00;;;;5019663;28;20197;-81
2023/05/09 02:46:26;;;;;;;4.57;4.17;;;14.60;62.00;14.60;96727.00;;;;5035128;28;20689;-81
2023/05/09 02:48:53;;;;;;;4.27;3.87;;;14.50;62.00;14.60;96720.00;;;;5038165;28;20691;-81
2023/05/09 02:51:21;;;;;;;5.40;4.40;;;14.50;62.00;14.50;96726.00;;;;5033642;28;20236;-80
2023/05/09 02:53:50;;;;;;;4.80;3.83;;;14.50;62.10;14.50;96723.00;;;;5033038;28;20242;-80
2023/05/09 02:56:19;;;;;;;4.20;3.80;;;14.40;62.10;14.50;96716.00;;;;5022112;28;20635;-81
2023/05/09 02:58:50;;;;;;;4.17;3.87;;;14.40;62.10;14.40;96717.00;;;;5036959;28;20198;-81
2023/05/09 03:01:17;;;;;;;3.77;3.57;;;14.40;62.10;14.40;96721.00;;;;5035850;28;20216;-81
2023/05/09 03:03:45;;;;;;;4.33;3.93;;;14.40;62.20;14.40;96717.00;;;;5025798;28;20200;-82
2023/05/09 03:06:13;;;;;;;5.13;4.07;;;14.30;62.20;14.40;96720.00;;;;5042707;28;20217;-80
2023/05/09 03:08:40;;;;;;;4.70;3.53;;;14.30;62.30;14.30;96715.00;;;;5013995;28;20247;-81
2023/05/09 03:11:09;;;;;;;3.93;3.63;;;14.30;62.30;14.30;96714.00;;;;5036291;28;20217;-81
2023/05/09 03:13:36;;;;;;;3.90;3.60;;;14.20;62.40;14.30;96709.00;;;;5034220;28;20651;-81
2023/05/09 03:16:04;;;;;;;4.00;3.70;;;14.20;62.30;14.20;96707.00;;;;5037516;28;20283;-81
2023/05/09 03:18:32;;;;;;;4.40;4.00;;;14.20;62.30;14.20;96709.00;;;;5022299;28;20209;-81
2023/05/09 03:20:59;;;;;;;3.70;3.40;;;14.20;62.40;14.20;96707.00;;;;5021414;28;20763;-81
2023/05/09 03:23:27;;;;;;;4.30;3.90;;;14.10;62.50;14.10;96710.00;;;;5039022;28;20693;-80
2023/05/09 03:25:54;;;;;;;3.77;3.53;;;14.10;62.60;14.10;96700.00;;;;5031465;28;20228;-81
2023/05/09 03:28:23;;;;;;;4.37;3.93;;;14.10;62.80;14.00;96701.00;;;;5032830;28;20201;-80
2023/05/09 03:30:50;;;;;;;3.70;3.40;;;14.00;62.80;14.00;96698.00;;;;5031710;28;20276;-81
2023/05/09 03:33:18;;;;;;;4.57;3.60;;;14.00;62.90;14.00;96702.00;;;;5051636;28;20204;-81
2023/05/09 03:35:45;;;;;;;6.60;4.37;;;14.00;62.90;13.90;96693.00;;;;5022452;28;20654;-81
2023/05/09 03:38:13;;;;;;;5.03;4.53;;;13.90;62.90;13.90;96685.00;;;;5043287;28;20225;-81
2023/05/09 03:40:40;;;;;;;4.77;4.00;;;13.90;62.90;13.90;96682.00;;;;5046374;28;20635;-81
2023/05/09 03:43:08;;;;;;;3.80;3.50;;;13.90;63.00;13.90;96687.00;;;;5045548;28;20193;-81
2023/05/09 03:45:37;;;;;;;3.77;3.40;;;13.80;63.00;13.80;96685.00;;;;5036588;28;20231;-81
2023/05/09 03:48:08;;;;;;;4.97;4.50;;;13.80;63.10;13.80;96691.00;;;;5040379;28;20204;-81
2023/05/09 03:50:35;;;;;;;4.17;3.77;;;13.80;63.20;13.80;96685.00;;;;5048550;28;20310;-81
2023/05/09 03:53:05;;;;;;;4.57;4.10;;;13.80;63.20;13.80;96687.00;;;;5048663;28;20212;-81
2023/05/09 03:55:33;;;;;;;4.53;4.13;;;13.70;63.20;13.80;96688.00;;;;5040576;28;20205;-81
2023/05/09 03:58:00;;;;;;;3.77;3.47;;;13.70;63.40;13.70;96696.00;;;;5019904;28;20208;-82
2023/05/09 04:00:27;;;;;;;3.90;3.50;;;13.70;63.40;13.70;96691.00;;;;5037326;28;20613;-82
2023/05/09 04:02:56;;;;;;;4.30;3.87;;;13.70;63.40;13.70;96694.00;;;;5039932;28;20203;-81
2023/05/09 04:05:25;;;;;;;3.67;3.37;;;13.60;63.50;13.70;96697.00;;;;5007084;28;20225;-81
2023/05/09 04:07:53;;;;;;;4.10;3.80;;;13.60;63.50;13.70;96701.00;;;;5036701;28;20205;-81
2023/05/09 04:10:21;;;;;;;3.83;3.53;;;13.60;63.50;13.60;96706.00;;;;5042669;28;20280;-81
2023/05/09 04:12:49;;;;;;;4.03;3.73;;;13.60;63.70;13.60;96708.00;;;;5046217;28;20280;-82
2023/05/09 04:15:16;;;;;;;4.33;3.83;;;13.60;63.10;13.60;96709.00;;;;5047280;28;20277;-81
2023/05/09 04:17:43;;;;;;;4.13;3.60;;;13.60;63.90;13.60;96708.00;;;;5037386;28;20201;-80
2023/05/09 04:20:14;;;;;;;5.10;3.63;;;13.50;63.90;13.60;96707.00;;;;5031844;28;20194;-81
2023/05/09 04:22:42;;;;;;;6.47;3.97;;;13.50;64.00;13.60;96710.00;;;;4998204;28;20537;-80
2023/05/09 04:25:11;;;;;;;4.07;3.77;;;13.50;64.00;13.60;96713.00;;;;5024445;28;20312;-79
2023/05/09 04:27:38;;;;;;;4.20;3.83;;;13.50;64.10;13.60;96715.00;;;;5027014;28;20200;-80
2023/05/09 04:30:08;;;;;;;4.00;3.70;;;13.50;64.10;13.60;96712.00;;;;5034860;28;20217;-81
2023/05/09 04:32:35;;;;;;;5.03;4.40;;;13.50;64.30;13.60;96716.00;;;;5016669;28;20234;-81
2023/05/09 04:35:03;;;;;;;5.13;3.57;;;13.50;64.40;13.60;96704.00;;;;5025877;28;20204;-79
2023/05/09 04:37:31;;;;;;;3.63;3.43;;;13.50;64.40;13.60;96702.00;;;;5046969;28;20208;-80
2023/05/09 04:40:00;;;;;;;3.43;3.20;;;13.50;64.60;13.70;96707.00;;;;5049065;28;20198;-80
2023/05/09 04:42:28;;;;;;;3.97;3.67;;;13.50;64.60;13.70;96710.00;;;;5036570;28;20213;-80
2023/05/09 04:44:56;;;;;;;3.73;3.40;;;13.50;64.50;13.70;96711.00;;;;5035287;28;20288;-80
2023/05/09 04:47:23;;;;;;;3.90;3.60;;;13.50;64.50;13.70;96710.00;;;;5019102;28;20212;-82
2023/05/09 04:49:51;;;;;;;4.27;3.40;;;13.50;64.40;13.70;96701.00;;;;5050426;28;20269;-79
2023/05/09 04:52:19;;;;;;;5.17;3.57;;;13.60;64.60;13.80;96696.00;;;;5040076;28;20241;-81
2023/05/09 04:54:48;;;;;;;3.93;3.57;;;13.60;64.60;13.80;96693.00;;;;5032146;28;20197;-82
2023/05/09 04:57:15;;;;;;;3.90;3.60;;;13.60;64.60;13.80;96696.00;;;;5032840;28;20259;-82
2023/05/09 04:59:43;;;;;;;3.27;3.07;;;13.60;64.50;13.80;96696.00;;;;5008608;28;20244;-80
2023/05/09 05:02:10;;;;;;;3.80;3.50;;;13.60;64.40;13.80;96697.00;;;;5045100;28;20284;-81
2023/05/09 05:04:37;;;;;;;3.80;3.50;;;13.60;64.40;13.90;96695.00;;;;5046453;28;20193;-81
2023/05/09 05:07:05;;;;;;;4.13;3.73;;;13.70;64.50;13.90;96696.00;;;;5025568;28;20248;-80
2023/05/09 05:09:33;;;;;;;3.70;3.40;;;13.70;64.60;13.90;96694.00;;;;5041438;28;20226;-81
2023/05/09 05:12:02;;;;;;;3.43;3.13;;;13.70;64.70;13.90;96695.00;;;;5040189;28;20279;-83
2023/05/09 05:14:29;;;;;;;4.20;3.90;;;13.70;64.80;14.00;96688.00;;;;5038302;28;20208;-81
2023/05/09 05:16:57;;;;;;;3.63;3.33;;;13.80;64.80;14.00;96686.00;;;;5036702;28;20312;-81
2023/05/09 05:19:25;;;;;;;3.50;3.13;;;13.80;64.70;14.00;96687.00;;;;5020382;28;20201;-82
2023/05/09 05:21:52;;;;;;;4.00;3.70;;;13.80;64.60;14.00;96687.00;;;;5033370;22;20264;-88
2023/05/09 05:24:20;;;;;;;3.90;3.50;;;13.80;64.50;14.10;96681.00;;;;5039844;28;20236;-88
2023/05/09 05:26:47;;;;;;;4.30;3.30;;;13.90;64.60;14.10;96689.00;;;;5032934;28;20225;-88
2023/05/09 05:29:16;;;;;;;3.60;3.30;;;13.90;64.60;14.10;96687.00;;;;5033527;28;20244;-88
2023/05/09 05:31:44;;;;;;;3.70;3.40;;;13.90;64.50;14.10;96678.00;;;;4996364;28;20226;-87
2023/05/09 05:34:11;;;;;;;3.93;3.60;;;13.90;64.50;14.20;96677.00;;;;5028153;28;20233;-88
2023/05/09 05:36:38;;;;;;;3.50;3.20;;;13.90;64.70;14.20;96681.00;;;;5027068;28;20200;-87
2023/05/09 05:39:06;;;;;;;3.90;3.60;;;14.00;64.60;14.20;96686.00;;;;5016496;28;20675;-86
2023/05/09 05:41:33;;;;;;;3.70;3.40;;;14.00;64.50;14.20;96677.00;;;;5036643;28;20648;-87
2023/05/09 05:44:00;;;;;;;3.40;3.07;;;14.00;64.60;14.30;96684.00;;;;5014554;28;20758;-86
2023/05/09 05:46:29;;;;;;;3.77;3.33;;;14.10;64.80;14.30;96680.00;;;;5030184;28;20223;-87
2023/05/09 05:48:56;;;;;;;3.70;3.40;;;14.10;64.80;14.30;96688.00;;;;5030820;28;20206;-87
2023/05/09 05:51:24;;;;;;;2.97;2.77;;;14.10;64.70;14.40;96689.00;;;;5042174;28;20229;-88
2023/05/09 05:53:51;;;;;;;3.27;3.07;;;14.10;64.60;14.40;96696.00;;;;5032778;28;20296;-87
2023/05/09 05:56:19;;;;;;;3.40;3.20;;;14.20;64.50;14.40;96684.00;;;;5037455;28;20816;-88
2023/05/09 05:58:46;;;;;;;3.47;3.17;;;14.20;64.40;14.50;96683.00;;;;5035636;28;20680;-87
2023/05/09 06:01:14;;;;;;;3.53;3.23;;;14.30;64.40;14.50;96684.00;;;;5017828;28;20193;-87
2023/05/09 06:03:42;;;;;;;3.70;3.40;;;14.30;64.30;14.60;96681.00;;;;5025037;28;20309;-88
2023/05/09 06:06:11;;;;;;;4.30;3.13;;;14.30;64.30;14.60;96688.00;;;;5016707;28;20220;-89
2023/05/09 06:08:38;;;;;;;3.40;3.10;;;14.40;64.30;14.60;96691.00;;;;5017305;28;20201;-87
2023/05/09 06:11:06;;;;;;;3.73;3.27;;;14.40;64.30;14.70;96691.00;;;;5032094;28;20662;-87
2023/05/09 06:13:33;;;;;;;4.33;3.47;;;14.50;64.40;14.70;96683.00;;;;5044032;28;20225;-87
2023/05/09 06:16:01;;;;;;;3.30;3.00;;;14.50;64.10;14.80;96687.00;;;;5035721;28;20208;-87
2023/05/09 06:18:28;;;;;;;3.67;3.37;;;14.50;63.80;14.80;96678.00;;;;5032757;28;20285;-87
2023/05/09 06:20:57;;;;;;;3.50;3.20;;;14.60;63.90;14.90;96675.00;;;;5031915;28;20193;-86
2023/05/09 06:23:24;;;;;;;3.60;3.30;;;14.60;63.90;14.90;96687.00;;;;5008163;28;20698;-87
2023/05/09 06:25:52;;;;;;;3.50;3.20;;;14.70;63.90;15.00;96675.00;;;;5036237;28;20679;-87
2023/05/09 06:28:19;;;;;;;3.27;3.00;;;14.70;64.00;15.00;96685.00;;;;5012669;28;20208;-87
2023/05/09 06:30:46;;;;;;;4.47;3.27;;;14.80;64.00;15.10;96673.00;;;;5040997;28;20219;-87
2023/05/09 06:33:14;;;;;;;3.50;3.20;;;14.80;63.90;15.10;96673.00;;;;5003629;28;20662;-87
2023/05/09 06:35:42;;;;;;;4.57;3.13;;;14.90;63.60;15.20;96665.00;;;;5008536;28;20200;-87
2023/05/09 06:38:10;;;;;;;3.77;3.00;;;14.90;63.50;15.20;96663.00;;;;5012899;28;20284;-87
2023/05/09 06:40:38;;;;;;;3.70;3.40;;;15.00;63.70;15.30;96657.00;;;;5039538;28;20228;-86
2023/05/09 06:43:06;;;;;;;5.13;3.50;;;15.00;63.70;15.40;96662.00;;;;5023560;28;20217;-87
2023/05/09 06:45:34;;;;;;;4.03;3.33;;;15.10;63.80;15.40;96660.00;;;;5038250;28;20288;-87
2023/05/09 06:48:01;;;;;;;3.40;3.13;;;15.10;63.70;15.50;96654.00;;;;5017386;28;20279;-86
2023/05/09 06:50:29;;;;;;;3.53;3.27;;;15.10;63.30;15.60;96648.00;;;;5033971;28;20629;-87
2023/05/09 06:52:56;;;;;;;3.23;3.03;;;15.30;63.20;15.60;96642.00;;;;5020615;28;20672;-87
2023/05/09 06:55:25;;;;;;;3.50;3.20;;;15.30;63.20;15.70;96634.00;;;;5016741;28;20416;-87
2023/05/09 06:57:53;;;;;;;3.30;3.03;;;15.40;63.10;15.80;96629.00;;;;5043642;28;20204;-87
2023/05/09 07:00:22;;;;;;;3.60;3.30;;;15.40;63.10;15.80;96630.00;;;;5016398;28;20221;-87
2023/05/09 07:02:50;;;;;;;3.47;3.20;;;15.50;63.20;15.90;96621.00;;;;5039016;28;20298;-86
2023/05/09 07:05:17;;;;;;;3.73;3.33;;;15.60;63.40;16.00;96634.00;;;;5016079;28;20654;-86
2023/05/09 07:07:45;;;;;;;3.73;3.43;;;15.70;63.30;16.10;96626.00;;;;5034876;28;20280;-87
2023/05/09 07:10:12;;;;;;;3.37;3.10;;;15.80;63.20;16.20;96629.00;;;;5035582;28;20285;-86
2023/05/09 07:12:41;;;;;;;3.30;3.10;;;15.80;63.20;16.40;96627.00;;;;5034711;28;20221;-87
2023/05/09 07:15:10;;;;;;;3.37;3.17;;;16.00;63.30;16.60;96636.00;;;;5017905;28;20196;-87
2023/05/09 07:17:38;;;;;;;3.83;3.40;;;16.10;63.20;16.80;96628.00;;;;5033791;28;20224;-87
2023/05/09 07:20:07;;;;;;;4.30;3.57;;;16.20;63.00;17.00;96635.00;;;;5034642;28;20592;-87
2023/05/09 07:22:35;;;;;;;4.10;3.70;;;16.40;63.00;17.20;96630.00;;;;5032269;28;20237;-88
2023/05/09 07:25:02;;;;;;;3.90;3.50;;;16.50;62.80;17.40;96628.00;;;;5018261;28;20197;-85
2023/05/09 07:27:29;;;;;;;3.73;3.43;;;16.70;62.50;17.60;96629.00;;;;5036073;28;20225;-87
2023/05/09 07:29:58;;;;;;;3.93;3.57;;;16.90;62.20;17.80;96630.00;;;;5017229;28;20650;-88
2023/05/09 07:32:27;;;;;;;3.93;3.47;;;17.00;61.70;18.00;96622.00;;;;5035142;28;20257;-87
2023/05/09 07:34:54;;;;;;;3.63;3.33;;;17.20;61.60;18.20;96625.00;;;;5021483;28;20197;-87
2023/05/09 07:37:21;;;;;;;3.37;3.17;;;17.40;61.50;18.40;96624.00;;;;5035961;28;20265;-86
2023/05/09 07:39:49;;;;;;;3.80;3.50;;;17.60;61.50;18.60;96619.00;;;;5035452;28;20696;-86
2023/05/09 07:42:16;;;;;;;3.70;3.40;;;17.70;61.10;18.70;96611.00;;;;5034736;28;20217;-86
2023/05/09 07:44:44;;;;;;;4.00;3.70;;;17.80;60.70;18.90;96617.00;;;;5018842;28;20574;-86
2023/05/09 07:47:13;;;;;;;3.53;3.33;;;18.10;60.30;19.10;96616.00;;;;5015807;28;20226;-85
2023/05/09 07:49:42;;;;;;;3.77;3.47;;;18.20;59.30;19.20;96612.00;;;;5022362;28;20189;-86
2023/05/09 07:52:09;;;;;;;4.07;3.73;;;18.30;59.40;19.30;96607.00;;;;5023278;28;20217;-87
2023/05/09 07:54:37;;;;;;;3.20;3.00;;;18.50;59.40;19.50;96598.00;;;;5031147;28;20198;-86
2023/05/09 07:57:04;;;;;;;4.10;3.73;;;18.60;59.50;19.70;96599.00;;;;5001210;28;20205;-88
2023/05/09 07:59:31;;;;;;;3.97;3.67;;;18.80;59.30;19.90;96596.00;;;;5046234;28;20209;-86
2023/05/09 08:01:59;;;;;;;4.00;3.70;;;18.90;59.00;20.00;96597.00;;;;5022288;28;20217;-87
2023/05/09 08:04:28;;;;;;;3.90;3.60;;;19.10;58.90;20.20;96604.00;;;;5045883;28;20255;-87
2023/05/09 08:06:56;;;;;;;4.00;3.60;;;19.20;58.70;20.40;96602.00;;;;5027653;28;20304;-86
2023/05/09 08:09:23;;;;;;;4.30;3.90;;;19.40;58.70;20.60;96605.00;;;;5036788;28;20764;-86
2023/05/09 08:11:51;;;;;;;5.87;3.70;;;19.60;58.20;20.80;96606.00;;;;5037921;28;20308;-87
2023/05/09 08:14:18;;;;;;;3.73;3.43;;;19.70;58.10;21.00;96606.00;;;;5033256;28;20204;-84
2023/05/09 08:16:45;;;;;;;3.97;3.50;;;19.80;58.00;21.20;96592.00;;;;5025094;28;20197;-88
2023/05/09 08:19:13;;;;;;;4.73;3.83;;;20.00;57.90;21.40;96595.00;;;;5042407;28;20220;-89
2023/05/09 08:21:42;;;;;;;3.50;3.20;;;20.20;57.70;21.60;96589.00;;;;5016808;28;20194;-89
2023/05/09 08:24:09;;;;;;;3.80;3.50;;;20.30;57.30;21.80;96594.00;;;;5022530;28;20282;-88
2023/05/09 08:26:36;;;;;;;4.10;3.80;;;20.50;56.90;22.00;96593.00;;;;5034080;28;20226;-87
2023/05/09 08:29:04;;;;;;;4.20;3.90;;;20.70;56.60;22.10;96593.00;;;;5034165;28;20227;-87
2023/05/09 08:31:31;;;;;;;4.37;3.97;;;20.80;56.40;22.20;96583.00;;;;5031473;28;20277;-88
2023/05/09 08:33:58;;;;;;;4.17;3.83;;;20.90;56.10;22.40;96585.00;;;;5039010;28;20236;-85
2023/05/09 08:36:26;;;;;;;5.90;3.97;;;21.10;56.00;22.50;96585.00;;;;5011669;28;20232;-87
2023/05/09 08:38:54;;;;;;;3.70;3.40;;;21.20;55.70;22.60;96580.00;;;;5040546;28;20286;-87
2023/05/09 08:41:27;;;;;;;4.37;3.97;;;21.30;55.40;22.70;96581.00;;;;5040115;28;20204;-89
2023/05/09 08:43:54;;;;;;;4.20;3.67;;;21.50;55.20;23.00;96585.00;;;;5036021;28;20212;-87
2023/05/09 08:46:30;;;;;;;4.57;3.43;;;21.60;55.40;23.20;96574.00;;;;5017771;28;20278;-85
2023/05/09 08:48:58;;;;;;;4.20;3.73;;;21.80;55.40;23.40;96579.00;;;;5022742;28;20203;-83
2023/05/09 08:51:27;;;;;;;4.10;3.80;;;21.90;54.90;23.50;96563.00;;;;5028193;28;20203;-83
2023/05/09 08:53:55;;;;;;;3.63;3.43;;;22.10;54.50;23.60;96563.00;;;;5029569;28;20236;-86
2023/05/09 08:56:23;;;;;;;4.03;3.70;;;22.20;54.40;23.70;96566.00;;;;5039216;28;20216;-81
2023/05/09 08:59:01;;;;;;;3.83;3.53;;;22.30;54.40;23.90;96563.00;;;;5044815;28;20227;-84
2023/05/09 09:01:29;;;;;;;3.70;3.40;;;22.40;54.50;24.00;96563.00;;;;5004755;28;20201;-84
2023/05/09 09:03:57;;;;;;;4.30;4.00;;;22.60;54.50;24.10;96562.00;;;;5016528;28;20702;-84
2023/05/09 09:06:24;;;;;;;4.67;3.57;;;22.70;54.40;24.30;96566.00;;;;5044953;28;20232;-84
2023/05/09 09:08:57;;;;;;;4.00;3.50;;;22.80;54.10;24.50;96563.00;;;;5040497;28;20198;-84
2023/05/09 09:11:24;;;;;;;4.17;3.77;;;23.00;53.90;24.90;96559.00;;;;5036654;28;20210;-83
2023/05/09 09:13:54;;;;;;;3.90;3.63;;;23.10;54.00;25.30;96555.00;;;;5019324;28;20636;-84
2023/05/09 09:16:26;;;;;;;3.80;3.57;;;23.30;53.20;25.50;96565.00;;;;5026619;28;20197;-85
2023/05/09 09:18:56;;;;;;;3.70;3.40;;;23.50;52.90;25.70;96564.00;;;;5035063;28;20582;-85
2023/05/09 09:21:23;;;;;;;4.00;3.70;;;23.60;53.00;25.90;96558.00;;;;5041033;28;20322;-83
2023/05/09 09:23:53;;;;;;;4.43;4.03;;;23.80;53.20;26.10;96556.00;;;;5044868;28;20683;-83
2023/05/09 09:26:23;;;;;;;3.57;3.33;;;24.00;52.90;26.50;96553.00;;;;5015845;28;20668;-83
2023/05/09 09:28:50;;;;;;;3.77;3.47;;;24.30;53.00;26.80;96550.00;;;;5033479;28;20229;-85
2023/05/09 09:31:23;;;;;;;3.70;3.40;;;24.50;53.00;27.20;96533.00;;;;5034296;28;20266;-86
2023/05/09 09:33:51;;;;;;;3.70;3.40;;;24.80;53.50;27.50;96541.00;;;;5036691;28;20197;-84
2023/05/09 09:36:28;;;;;;;3.77;3.40;;;25.10;52.80;27.90;96539.00;;;;5014500;28;20261;-83
2023/05/09 09:39:00;;;;;;;3.93;3.50;;;25.50;52.00;28.20;96540.00;;;;5032156;28;20229;-84
2023/05/09 09:41:34;;;;;;;3.33;3.07;;;25.80;51.80;28.50;96530.00;;;;5046742;28;20273;-85
2023/05/09 09:44:08;;;;;;;3.80;3.50;;;26.20;51.70;28.70;96533.00;;;;5027870;28;20281;-84
2023/05/09 09:46:49;;;;;;;3.90;3.60;;;26.50;50.50;29.00;96528.00;;;;5035825;28;20607;-84
2023/05/09 09:49:20;;;;;;;3.22;3.03;;;26.90;50.30;29.20;96525.00;;;;5032399;28;20243;-84
2023/05/09 09:51:51;;;;;;;4.68;3.42;;;27.20;49.60;29.40;96529.00;;;;5038215;28;20240;-84
2023/05/09 09:54:19;;;;;;;3.20;3.00;;;27.50;48.40;29.50;96515.00;;;;5035625;28;20190;-84
2023/05/09 09:56:53;;;;;;;2.67;2.47;;;27.70;48.30;29.70;96519.00;;;;5033189;28;20261;-84
2023/05/09 09:59:23;;;;;;;3.30;3.10;;;28.00;47.30;29.80;96504.00;;;;5022537;28;20658;-85
2023/05/09 10:02:00;;;;;;;2.95;2.63;;;28.20;47.70;30.00;96505.00;;;;5021769;28;20274;-83
2023/05/09 10:04:30;;;;;;;3.05;2.85;;;28.50;47.00;30.10;96498.00;;;;5053413;28;20188;-84
2023/05/09 10:06:59;;;;;;;2.97;2.67;;;28.70;47.00;30.30;96499.00;;;;5037810;28;20201;-84
2023/05/09 10:09:28;;;;;;;5.28;2.60;;;29.00;47.00;30.50;96496.00;;;;5052149;28;20200;-84
2023/05/09 10:12:02;;;;;;;2.50;2.30;;;29.20;46.10;30.60;96487.00;;;;5019060;28;20213;-84
2023/05/09 10:14:32;;;;;;;2.78;2.47;;;29.40;45.40;30.70;96483.00;;;;5035895;28;20197;-83
2023/05/09 10:17:04;;;;;;;2.70;2.50;;;29.60;45.20;30.80;96487.00;;;;5043198;28;20192;-84
2023/05/09 10:19:31;;;;;;;3.00;2.80;;;29.80;45.00;30.80;96485.00;;;;5028743;28;20590;-84
2023/05/09 10:22:04;;;;;;;3.75;3.45;;;29.90;45.10;30.90;96479.00;;;;5019436;28;20228;-84
2023/05/09 10:24:39;;;;;;;3.90;3.60;;;30.00;44.20;30.80;96472.00;;;;5048340;28;20197;-85
2023/05/09 10:27:11;;;;;;;3.30;3.10;;;30.00;43.40;30.70;96468.00;;;;5030605;28;20232;-85
2023/05/09 10:29:46;;;;;;;3.00;2.80;;;30.00;42.80;30.60;96472.00;;;;5035518;28;20284;-85
2023/05/09 10:32:22;;;;;;;2.85;2.63;;;29.90;42.90;30.50;96470.00;;;;5035294;28;20213;-86
2023/05/09 10:34:54;;;;;;;3.28;3.08;;;29.90;43.00;30.40;96458.00;;;;5033052;28;20335;-85
2023/05/09 10:37:23;;;;;;;3.28;3.08;;;29.80;42.60;30.20;96453.00;;;;5036596;28;20232;-85
2023/05/09 10:39:52;;;;;;;3.92;3.38;;;29.70;42.80;30.10;96456.00;;;;5037502;28;20245;-83
2023/05/09 10:42:24;;;;;;;6.80;3.30;;;29.60;42.20;30.00;96449.00;;;;5039448;28;20214;-85
2023/05/09 10:44:53;;;;;;;3.70;3.40;;;29.50;41.70;29.80;96442.00;;;;5053769;28;20193;-84
2023/05/09 10:47:20;;;;;;;3.60;2.90;;;29.40;41.70;29.60;96438.00;;;;5040314;28;20213;-85
2023/05/09 10:49:49;;;;;;;3.17;2.90;;;29.20;41.30;29.40;96436.00;;;;5036399;28;20228;-85
2023/05/09 10:52:17;;;;;;;3.38;3.08;;;29.00;41.10;29.10;96428.00;;;;5033803;28;20213;-87
2023/05/09 10:54:45;;;;;;;2.88;2.67;;;28.80;41.70;28.90;96429.00;;;;5000237;28;20255;-87
2023/05/09 10:57:12;;;;;;;3.38;3.17;;;28.60;41.90;28.70;96418.00;;;;5018873;28;20235;-86
2023/05/09 10:59:44;;;;;;;3.47;3.17;;;28.40;41.60;28.40;96419.00;;;;5015248;28;20841;-86
2023/05/09 11:02:19;;;;;;;3.50;3.25;;;28.20;41.60;28.10;96408.00;;;;5039764;28;20302;-85